Time;durP1;ratioP1;P1;durP2;ratioP2;P2;SDS_P1;SDS_P2;PMS_P1;PMS_P2;Temp;Humidity;BMP_temperature;BMP_pressure;BME280_temperature;BME280_humidity;BME280_pressure;Samples;Min_cycle;Max_cycle;Signal;HPM_P1;HPM_P2
2021/07/24 00:00:17;;;;;;;18.00;11.77;;;17.30;99.90;;;;;;5085558;28;20196;-84
2021/07/24 00:02:43;;;;;;;15.83;11.23;;;17.30;99.90;;;;;;5086572;28;20200;-84
2021/07/24 00:05:09;;;;;;;19.37;11.27;;;17.20;99.90;;;;;;5086811;28;20197;-85
2021/07/24 00:07:34;;;;;;;17.90;11.93;;;17.20;99.90;;;;;;5088081;28;20177;-84
2021/07/24 00:10:00;;;;;;;18.20;11.80;;;17.20;99.90;;;;;;5084202;28;20177;-84
2021/07/24 00:12:25;;;;;;;19.47;11.57;;;17.10;99.90;;;;;;5084280;28;20189;-84
2021/07/24 00:14:52;;;;;;;17.57;11.57;;;17.10;99.90;;;;;;5082692;28;20183;-84
2021/07/24 00:17:17;;;;;;;17.30;11.60;;;17.10;99.90;;;;;;5083365;28;20244;-85
2021/07/24 00:19:43;;;;;;;17.90;12.03;;;17.10;99.90;;;;;;5082513;28;20216;-84
2021/07/24 00:22:09;;;;;;;17.50;11.17;;;17.10;99.90;;;;;;5082813;28;20198;-83
2021/07/24 00:24:34;;;;;;;17.40;11.37;;;17.10;99.90;;;;;;5082234;28;20180;-84
2021/07/24 00:27:01;;;;;;;17.83;11.27;;;17.10;99.90;;;;;;5082010;28;20199;-84
2021/07/24 00:29:27;;;;;;;21.07;11.70;;;17.10;99.90;;;;;;5082188;28;20197;-84
2021/07/24 00:31:52;;;;;;;17.33;11.80;;;17.10;99.90;;;;;;5083437;28;20184;-84
2021/07/24 00:34:18;;;;;;;16.70;11.67;;;17.10;99.90;;;;;;5082461;28;20666;-84
2021/07/24 00:36:44;;;;;;;21.93;11.70;;;17.10;99.90;;;;;;5083177;28;20176;-84
2021/07/24 00:39:10;;;;;;;18.70;11.50;;;17.10;99.90;;;;;;5082049;28;20548;-84
2021/07/24 00:41:45;;;;;;;19.67;11.80;;;17.10;99.90;;;;;;5081917;28;20180;-84
2021/07/24 00:44:14;;;;;;;21.57;11.57;;;17.10;99.90;;;;;;5082171;28;20177;-84
2021/07/24 00:46:42;;;;;;;22.53;12.00;;;17.00;99.90;;;;;;5083025;28;20180;-84
2021/07/24 00:49:10;;;;;;;19.37;11.67;;;17.10;99.90;;;;;;5080759;28;20193;-84
2021/07/24 00:51:38;;;;;;;20.67;11.57;;;17.00;99.90;;;;;;5084460;28;20177;-84
2021/07/24 00:54:04;;;;;;;15.67;11.00;;;17.00;99.90;;;;;;5084259;28;20201;-84
2021/07/24 00:56:31;;;;;;;23.67;11.27;;;17.00;99.90;;;;;;5085526;28;20176;-84
2021/07/24 00:58:58;;;;;;;21.37;12.23;;;16.90;99.90;;;;;;5085953;28;20230;-84
2021/07/24 01:01:25;;;;;;;17.70;12.20;;;16.90;99.90;;;;;;5082200;28;20187;-84
2021/07/24 01:03:51;;;;;;;16.00;10.77;;;16.90;99.90;;;;;;5081152;28;20208;-84
2021/07/24 01:06:17;;;;;;;20.83;11.50;;;16.90;99.90;;;;;;5081085;28;20197;-84
2021/07/24 01:08:43;;;;;;;18.83;11.57;;;16.90;99.90;;;;;;5088927;28;20263;-84
2021/07/24 01:11:11;;;;;;;17.07;10.77;;;16.90;99.90;;;;;;5086858;28;20723;-84
2021/07/24 01:13:38;;;;;;;20.63;11.70;;;16.90;99.90;;;;;;5086303;28;20256;-84
2021/07/24 01:16:04;;;;;;;17.53;10.57;;;16.90;99.90;;;;;;5085600;28;20247;-84
2021/07/24 01:18:30;;;;;;;22.70;10.60;;;16.90;99.90;;;;;;5085484;28;20177;-84
2021/07/24 01:21:00;;;;;;;15.27;9.60;;;16.90;99.90;;;;;;5087121;28;20180;-84
2021/07/24 01:23:26;;;;;;;15.97;10.53;;;16.90;99.90;;;;;;5085886;28;20226;-85
2021/07/24 01:25:53;;;;;;;15.83;10.30;;;16.90;99.90;;;;;;5084975;28;20191;-84
2021/07/24 01:28:27;;;;;;;16.10;10.50;;;16.90;99.90;;;;;;5085405;28;20201;-84
2021/07/24 01:30:53;;;;;;;17.77;10.63;;;16.90;99.90;;;;;;5085794;28;20184;-85
2021/07/24 01:33:19;;;;;;;17.73;10.37;;;16.90;99.90;;;;;;5085961;28;20196;-84
2021/07/24 01:35:46;;;;;;;15.00;10.20;;;16.90;99.90;;;;;;5088255;28;20169;-84
2021/07/24 01:38:12;;;;;;;15.40;10.53;;;16.80;99.90;;;;;;5087554;28;20177;-84
2021/07/24 01:40:38;;;;;;;16.70;9.83;;;16.80;99.90;;;;;;5088539;28;20244;-84
2021/07/24 01:43:04;;;;;;;23.57;10.70;;;16.80;99.90;;;;;;5083125;28;20201;-84
2021/07/24 01:45:32;;;;;;;16.70;10.17;;;16.80;99.90;;;;;;5077855;28;20185;-83
2021/07/24 01:47:58;;;;;;;15.37;10.57;;;16.80;99.90;;;;;;5082899;28;20197;-83
2021/07/24 01:53:09;;;;;;;16.83;10.47;;;16.80;99.90;;;;;;5097649;28;20200;-84
2021/07/24 01:55:51;;;;;;;18.93;10.03;;;16.80;99.90;;;;;;5082003;28;20532;-83
2021/07/24 01:58:22;;;;;;;17.37;9.90;;;16.80;99.90;;;;;;5080901;28;20173;-84
2021/07/24 02:00:49;;;;;;;17.47;10.17;;;16.80;99.90;;;;;;5085222;28;20168;-84
2021/07/24 02:03:16;;;;;;;18.70;10.13;;;16.80;99.90;;;;;;5083081;28;20804;-84
2021/07/24 02:05:48;;;;;;;14.40;9.27;;;16.80;99.90;;;;;;5084344;28;20199;-84
2021/07/24 02:08:25;;;;;;;16.53;10.10;;;16.80;99.90;;;;;;5085424;28;20219;-84
2021/07/24 02:10:51;;;;;;;16.60;9.83;;;16.70;99.90;;;;;;5084254;28;20188;-86
2021/07/24 02:13:20;;;;;;;21.60;10.03;;;16.70;99.90;;;;;;5084571;28;20216;-84
2021/07/24 02:15:46;;;;;;;16.57;9.77;;;16.70;99.90;;;;;;5085164;28;20575;-83
2021/07/24 02:18:17;;;;;;;14.00;9.67;;;16.70;99.90;;;;;;5084518;28;20264;-84
2021/07/24 02:20:45;;;;;;;14.40;9.53;;;16.70;99.90;;;;;;5084170;28;20258;-84
2021/07/24 02:23:11;;;;;;;17.50;10.60;;;16.70;99.90;;;;;;5084665;28;20207;-84
2021/07/24 02:25:37;;;;;;;15.63;9.97;;;16.60;99.90;;;;;;5086027;28;20177;-84
2021/07/24 02:28:02;;;;;;;16.43;9.93;;;16.60;99.90;;;;;;5084825;28;20279;-84
2021/07/24 02:30:28;;;;;;;15.10;9.50;;;16.60;99.90;;;;;;5083184;28;20638;-84
2021/07/24 02:32:54;;;;;;;15.23;9.53;;;16.60;99.90;;;;;;5083305;28;20197;-84
2021/07/24 02:35:20;;;;;;;13.87;9.20;;;16.60;99.90;;;;;;5085883;28;20169;-84
2021/07/24 02:37:45;;;;;;;15.40;9.77;;;16.60;99.90;;;;;;5084226;28;20572;-84
2021/07/24 02:40:11;;;;;;;13.97;9.37;;;16.50;99.90;;;;;;5084768;28;20230;-84
2021/07/24 02:42:37;;;;;;;15.60;9.50;;;16.50;99.90;;;;;;5083047;28;20230;-84
2021/07/24 02:45:04;;;;;;;14.50;8.77;;;16.50;99.90;;;;;;5083389;28;20227;-84
2021/07/24 02:47:30;;;;;;;16.57;10.47;;;16.40;99.90;;;;;;5080001;28;20181;-84
2021/07/24 02:49:55;;;;;;;15.80;10.13;;;16.50;99.90;;;;;;5079691;28;20184;-84
2021/07/24 02:52:21;;;;;;;14.90;9.27;;;16.50;99.90;;;;;;5077854;28;20192;-84
2021/07/24 02:54:46;;;;;;;18.53;10.17;;;16.50;99.90;;;;;;5078536;28;20169;-84
2021/07/24 02:57:12;;;;;;;17.90;10.13;;;16.50;99.90;;;;;;5078944;28;20165;-84
2021/07/24 02:59:38;;;;;;;17.60;9.77;;;16.40;99.90;;;;;;5086148;28;20185;-84
2021/07/24 03:02:04;;;;;;;19.03;9.93;;;16.50;99.90;;;;;;5082410;28;20208;-84
2021/07/24 03:04:29;;;;;;;16.57;9.77;;;16.50;99.90;;;;;;5082699;28;20272;-84
2021/07/24 03:06:55;;;;;;;15.70;9.23;;;16.50;99.90;;;;;;5082800;28;20223;-84
2021/07/24 03:09:21;;;;;;;16.57;9.07;;;16.40;99.90;;;;;;5083262;28;20205;-84
2021/07/24 03:11:46;;;;;;;18.17;10.03;;;16.40;99.90;;;;;;5083386;28;20188;-84
2021/07/24 03:14:12;;;;;;;17.23;9.23;;;16.40;99.90;;;;;;5084704;28;20519;-84
2021/07/24 03:16:38;;;;;;;18.00;10.13;;;16.30;99.90;;;;;;5083795;28;20179;-85
2021/07/24 03:19:03;;;;;;;17.10;9.20;;;16.30;99.90;;;;;;5085854;28;20177;-84
2021/07/24 03:21:29;;;;;;;14.00;9.30;;;16.30;99.90;;;;;;5085257;28;20188;-84
2021/07/24 03:23:55;;;;;;;15.73;9.17;;;16.30;99.90;;;;;;5084931;28;20185;-84
2021/07/24 03:26:20;;;;;;;20.23;9.40;;;16.40;99.90;;;;;;5080614;28;20181;-84
2021/07/24 03:28:46;;;;;;;14.50;9.27;;;16.40;99.90;;;;;;5080616;28;20291;-84
2021/07/24 03:31:13;;;;;;;12.07;8.17;;;16.40;99.90;;;;;;5080659;28;20627;-84
2021/07/24 03:33:38;;;;;;;16.50;9.17;;;16.30;99.90;;;;;;5083379;28;20201;-84
2021/07/24 03:36:07;;;;;;;14.33;9.37;;;16.30;99.90;;;;;;5090862;28;20244;-84
2021/07/24 03:38:32;;;;;;;13.30;8.67;;;16.40;99.90;;;;;;5090775;28;20177;-84
2021/07/24 03:40:59;;;;;;;13.60;8.90;;;16.30;99.90;;;;;;5079462;28;20183;-84
2021/07/24 03:43:24;;;;;;;14.17;9.50;;;16.40;99.90;;;;;;5078095;28;20251;-84
2021/07/24 03:45:50;;;;;;;13.43;9.27;;;16.30;99.90;;;;;;5077819;28;20639;-84
2021/07/24 03:48:16;;;;;;;15.27;9.73;;;16.30;99.90;;;;;;5076049;28;20604;-84
2021/07/24 03:50:42;;;;;;;11.87;8.63;;;16.30;99.90;;;;;;5074937;28;20565;-84
2021/07/24 03:53:08;;;;;;;11.97;8.53;;;16.40;99.90;;;;;;5073039;28;20197;-84
2021/07/24 03:55:35;;;;;;;13.97;8.93;;;16.40;99.90;;;;;;5084732;28;20188;-83
2021/07/24 03:58:01;;;;;;;17.53;8.93;;;16.40;99.90;;;;;;5098760;28;20252;-83
2021/07/24 04:00:33;;;;;;;14.57;9.17;;;16.50;99.90;;;;;;5090482;28;20639;-84
2021/07/24 04:03:03;;;;;;;17.57;9.37;;;16.40;99.90;;;;;;5081755;28;20203;-84
2021/07/24 04:05:32;;;;;;;14.77;9.23;;;16.50;99.90;;;;;;5082307;28;20196;-84
2021/07/24 04:07:59;;;;;;;13.70;9.67;;;16.50;99.90;;;;;;5082267;28;20546;-85
2021/07/24 04:10:24;;;;;;;14.30;8.90;;;16.50;99.90;;;;;;5082477;28;20176;-84
2021/07/24 04:12:52;;;;;;;17.70;9.33;;;16.50;99.90;;;;;;5081292;28;20217;-85
2021/07/24 04:15:19;;;;;;;13.90;9.37;;;16.50;99.90;;;;;;5082132;28;20177;-84
2021/07/24 04:17:45;;;;;;;13.83;8.53;;;16.50;99.90;;;;;;5081384;28;20181;-85
2021/07/24 04:20:11;;;;;;;15.83;9.23;;;16.50;99.90;;;;;;5082415;28;20227;-84
2021/07/24 04:22:37;;;;;;;15.13;9.47;;;16.50;99.90;;;;;;5081142;28;20200;-84
2021/07/24 04:25:03;;;;;;;12.90;8.60;;;16.50;99.90;;;;;;5081132;28;20177;-85
2021/07/24 04:27:28;;;;;;;13.77;8.17;;;16.50;99.90;;;;;;5084115;28;20267;-85
2021/07/24 04:29:57;;;;;;;14.47;9.10;;;16.60;99.90;;;;;;5083503;28;20188;-85
2021/07/24 04:32:23;;;;;;;17.83;9.47;;;16.70;99.90;;;;;;5083638;28;20378;-85
2021/07/24 04:34:48;;;;;;;14.23;9.43;;;16.80;99.90;;;;;;5084501;28;20259;-85
2021/07/24 04:37:14;;;;;;;14.40;9.20;;;16.90;99.90;;;;;;5082580;28;20212;-85
2021/07/24 04:39:40;;;;;;;13.40;8.77;;;17.00;99.90;;;;;;5082146;28;20279;-84
2021/07/24 04:42:05;;;;;;;14.83;8.57;;;17.10;99.90;;;;;;5082188;28;20204;-85
2021/07/24 04:44:31;;;;;;;14.27;9.30;;;17.20;99.90;;;;;;5081470;28;20230;-84
2021/07/24 04:46:57;;;;;;;13.07;9.17;;;17.30;99.90;;;;;;5083497;28;20256;-84
2021/07/24 04:49:22;;;;;;;13.80;9.37;;;17.40;99.90;;;;;;5083710;28;20549;-85
2021/07/24 04:51:48;;;;;;;14.70;8.77;;;17.50;99.90;;;;;;5091589;28;20200;-85
2021/07/24 04:54:14;;;;;;;13.70;8.50;;;17.60;99.90;;;;;;5086788;28;20259;-85
2021/07/24 04:56:40;;;;;;;14.87;8.93;;;17.70;99.90;;;;;;5088462;28;20170;-85
2021/07/24 04:59:07;;;;;;;13.83;8.80;;;17.80;99.90;;;;;;5088910;28;20171;-84
2021/07/24 05:01:33;;;;;;;12.63;8.47;;;18.00;99.90;;;;;;5088498;28;20167;-85
2021/07/24 05:04:01;;;;;;;11.27;8.43;;;18.00;99.90;;;;;;5092930;28;20178;-84
2021/07/24 05:06:28;;;;;;;12.33;8.20;;;18.00;99.90;;;;;;5085234;28;20214;-84
2021/07/24 05:08:54;;;;;;;13.30;8.80;;;18.10;99.90;;;;;;5084751;28;20210;-85
2021/07/24 05:11:22;;;;;;;13.17;8.90;;;18.20;99.90;;;;;;5086822;28;20264;-84
2021/07/24 05:13:48;;;;;;;12.93;8.97;;;18.20;99.90;;;;;;5084246;28;20270;-84
2021/07/24 05:16:14;;;;;;;13.27;9.07;;;18.30;99.90;;;;;;5084824;28;20242;-84
2021/07/24 05:18:39;;;;;;;15.13;9.57;;;18.30;99.90;;;;;;5084580;28;20696;-84
2021/07/24 05:21:05;;;;;;;12.47;8.87;;;18.30;99.90;;;;;;5083609;28;20186;-85
2021/07/24 05:23:30;;;;;;;16.77;9.07;;;18.30;99.90;;;;;;5085050;28;20657;-84
2021/07/24 05:25:56;;;;;;;14.10;9.07;;;18.30;99.90;;;;;;5085026;28;20222;-84
2021/07/24 05:28:22;;;;;;;15.97;9.60;;;;;;;;;;5085310;28;20195;-83
2021/07/24 05:30:48;;;;;;;13.43;8.40;;;;;;;;;;5085779;28;20209;-83
2021/07/24 05:33:14;;;;;;;16.77;9.03;;;18.10;99.90;;;;;;5086113;28;20189;-82
2021/07/24 05:35:40;;;;;;;13.67;9.13;;;;;;;;;;5086161;28;20174;-83
2021/07/24 05:38:06;;;;;;;18.87;9.10;;;;;;;;;;5085466;28;20191;-83
2021/07/24 05:40:32;;;;;;;12.90;9.00;;;;;;;;;;5085813;28;20178;-83
2021/07/24 05:43:01;;;;;;;12.03;8.43;;;17.80;99.90;;;;;;5084883;28;20270;-82
2021/07/24 05:45:27;;;;;;;13.93;9.23;;;17.80;99.90;;;;;;5084377;28;20251;-83
2021/07/24 05:47:53;;;;;;;13.97;9.80;;;;;;;;;;5086036;28;20215;-82
2021/07/24 05:50:19;;;;;;;17.63;9.23;;;;;;;;;;5084851;28;20179;-82
2021/07/24 05:52:45;;;;;;;16.97;9.07;;;17.90;99.90;;;;;;5084693;28;20196;-83
2021/07/24 05:55:11;;;;;;;13.50;9.10;;;;;;;;;;5083280;28;20182;-82
2021/07/24 05:57:37;;;;;;;16.10;8.53;;;;;;;;;;5079038;28;20289;-82
2021/07/24 06:00:05;;;;;;;13.77;8.10;;;17.90;99.90;;;;;;5076701;28;20747;-81
2021/07/24 06:02:31;;;;;;;13.40;8.50;;;18.10;99.90;;;;;;5089139;28;20199;-82
2021/07/24 06:04:56;;;;;;;13.03;8.57;;;18.10;99.90;;;;;;5100584;28;20205;-80
2021/07/24 06:07:22;;;;;;;11.17;8.40;;;18.10;99.90;;;;;;5092037;28;20629;-82
2021/07/24 06:09:47;;;;;;;13.20;8.30;;;18.30;99.90;;;;;;5090366;28;20195;-81
2021/07/24 06:12:13;;;;;;;13.80;9.13;;;18.40;99.90;;;;;;5097668;28;20194;-82
2021/07/24 06:14:39;;;;;;;12.50;9.00;;;18.50;99.90;;;;;;5092635;28;20184;-82
2021/07/24 06:17:05;;;;;;;14.70;9.83;;;18.60;99.90;;;;;;5084094;28;20183;-82
2021/07/24 06:19:31;;;;;;;15.80;9.87;;;18.80;99.90;;;;;;5082703;28;20274;-82
2021/07/24 06:21:56;;;;;;;11.93;8.47;;;18.90;99.90;;;;;;5081556;28;20199;-82
2021/07/24 06:24:22;;;;;;;12.30;9.00;;;19.00;99.90;;;;;;5082729;28;20179;-82
2021/07/24 06:26:48;;;;;;;12.60;8.37;;;19.00;99.90;;;;;;5082628;28;20567;-82
2021/07/24 06:29:13;;;;;;;14.67;9.80;;;19.00;99.90;;;;;;5083234;28;20214;-82
2021/07/24 06:31:39;;;;;;;14.57;9.03;;;19.00;99.90;;;;;;5081648;28;20619;-82
2021/07/24 06:34:05;;;;;;;13.70;9.80;;;18.90;99.90;;;;;;5086868;28;20296;-82
2021/07/24 06:36:31;;;;;;;13.13;9.10;;;18.90;99.90;;;;;;5081595;28;20172;-83
2021/07/24 06:38:57;;;;;;;15.90;9.90;;;18.80;99.90;;;;;;5081006;28;20209;-82
2021/07/24 06:41:23;;;;;;;15.57;9.03;;;18.80;99.90;;;;;;5080090;28;20195;-81
2021/07/24 06:43:49;;;;;;;12.27;8.83;;;18.60;99.90;;;;;;5087746;28;20184;-81
2021/07/24 06:46:18;;;;;;;12.60;9.43;;;18.60;99.90;;;;;;5087624;28;20581;-82
2021/07/24 06:48:44;;;;;;;14.70;9.33;;;18.60;99.90;;;;;;5082870;28;20207;-82
2021/07/24 06:51:10;;;;;;;13.23;9.00;;;18.80;99.90;;;;;;5083760;28;20173;-81
2021/07/24 06:53:36;;;;;;;14.70;8.60;;;18.80;99.90;;;;;;5084379;28;20202;-82
2021/07/24 06:56:02;;;;;;;13.37;8.33;;;18.90;99.90;;;;;;5082284;28;20233;-82
2021/07/24 06:58:28;;;;;;;12.70;8.30;;;18.90;99.90;;;;;;5083665;28;20206;-82
2021/07/24 07:00:55;;;;;;;13.57;8.87;;;18.90;99.90;;;;;;5082350;28;20669;-82
2021/07/24 07:03:20;;;;;;;13.00;9.60;;;18.90;99.90;;;;;;5085052;28;20223;-82
2021/07/24 07:05:46;;;;;;;15.07;8.00;;;18.90;99.90;;;;;;5084558;28;20197;-83
2021/07/24 07:08:11;;;;;;;14.83;9.47;;;18.80;99.90;;;;;;5085181;28;20198;-83
2021/07/24 07:10:37;;;;;;;10.90;8.03;;;18.80;99.90;;;;;;5083410;28;20173;-83
2021/07/24 07:13:03;;;;;;;12.50;8.40;;;18.70;99.90;;;;;;5084434;28;20562;-83
2021/07/24 07:15:29;;;;;;;12.30;8.07;;;18.70;99.90;;;;;;5083666;28;20665;-83
2021/07/24 07:17:55;;;;;;;12.40;8.33;;;18.60;99.90;;;;;;5083412;28;20213;-83
2021/07/24 07:20:21;;;;;;;13.87;8.00;;;18.60;99.90;;;;;;5082588;28;20184;-82
2021/07/24 07:22:46;;;;;;;11.00;7.97;;;18.60;99.90;;;;;;5083202;28;20292;-82
2021/07/24 07:25:13;;;;;;;12.10;8.07;;;18.50;99.90;;;;;;5084179;28;20170;-82
2021/07/24 07:27:43;;;;;;;14.53;8.83;;;18.50;99.90;;;;;;5083253;28;20196;-82
2021/07/24 07:30:10;;;;;;;14.47;9.23;;;18.40;99.90;;;;;;5083119;28;20178;-82
2021/07/24 07:32:36;;;;;;;12.10;8.53;;;18.40;99.90;;;;;;5083266;28;20196;-83
2021/07/24 07:35:02;;;;;;;13.90;9.53;;;18.30;99.90;;;;;;5082991;28;20205;-83
2021/07/24 07:37:28;;;;;;;17.47;9.80;;;18.40;99.90;;;;;;5082835;28;20170;-82
2021/07/24 07:39:54;;;;;;;14.63;9.77;;;18.30;99.90;;;;;;5084245;28;20179;-82
2021/07/24 07:42:19;;;;;;;15.13;8.93;;;18.10;99.90;;;;;;5083951;28;20223;-81
2021/07/24 07:44:46;;;;;;;16.10;9.37;;;18.10;99.90;;;;;;5083288;28;20177;-82
2021/07/24 07:47:11;;;;;;;13.40;9.57;;;18.00;99.90;;;;;;5083579;28;20214;-81
2021/07/24 07:49:38;;;;;;;17.63;9.70;;;;;;;;;;5084009;28;20218;-81
2021/07/24 07:52:05;;;;;;;14.80;9.23;;;18.00;99.90;;;;;;5082154;28;20197;-81
2021/07/24 07:54:33;;;;;;;13.00;9.47;;;18.10;99.90;;;;;;5081936;28;20259;-81
2021/07/24 07:56:59;;;;;;;11.53;8.50;;;18.10;99.90;;;;;;5083672;28;20168;-81
2021/07/24 07:59:25;;;;;;;14.53;8.00;;;18.00;99.90;;;;;;5082719;28;20173;-81
2021/07/24 08:01:51;;;;;;;12.57;8.63;;;;;;;;;;5081964;28;20200;-81
2021/07/24 08:04:17;;;;;;;14.10;8.60;;;18.10;99.90;;;;;;5084955;28;20177;-81
2021/07/24 08:06:43;;;;;;;12.57;8.47;;;18.10;99.90;;;;;;5084815;28;20177;-81
2021/07/24 08:09:08;;;;;;;12.27;8.00;;;18.10;99.90;;;;;;5091902;28;20201;-81
2021/07/24 08:11:34;;;;;;;15.77;8.77;;;18.30;99.90;;;;;;5096258;28;20192;-81
2021/07/24 08:14:00;;;;;;;13.33;8.13;;;;;;;;;;5090526;28;20185;-81
2021/07/24 08:16:26;;;;;;;12.77;8.73;;;;;;;;;;5083711;28;20178;-81
2021/07/24 08:18:52;;;;;;;12.40;9.00;;;18.60;99.90;;;;;;5082461;28;20173;-81
2021/07/24 08:21:18;;;;;;;16.23;8.93;;;;;;;;;;5087493;28;20174;-81
2021/07/24 08:23:44;;;;;;;12.57;7.80;;;;;;;;;;5088545;28;20722;-81
2021/07/24 08:26:10;;;;;;;15.83;8.17;;;19.00;99.90;;;;;;5088913;28;20189;-81
2021/07/24 08:28:35;;;;;;;14.33;8.57;;;19.10;99.90;;;;;;5087685;28;20198;-80
2021/07/24 08:31:01;;;;;;;13.23;8.67;;;19.30;99.90;;;;;;5082053;28;20235;-80
2021/07/24 08:33:27;;;;;;;14.63;8.20;;;19.50;99.90;;;;;;5090572;28;20199;-80
2021/07/24 08:35:56;;;;;;;12.40;8.77;;;19.70;99.90;;;;;;5086947;28;20194;-80
2021/07/24 08:38:22;;;;;;;12.10;8.50;;;19.90;99.90;;;;;;5086925;28;20710;-80
2021/07/24 08:40:48;;;;;;;11.70;8.43;;;20.10;99.90;;;;;;5087289;28;20212;-81
2021/07/24 08:43:14;;;;;;;12.30;8.47;;;20.20;99.90;;;;;;5085237;28;20215;-81
2021/07/24 08:45:41;;;;;;;15.87;8.33;;;20.30;99.90;;;;;;5085934;28;20180;-81
2021/07/24 08:48:07;;;;;;;13.50;7.90;;;20.40;99.90;;;;;;5088726;28;20227;-81
2021/07/24 08:50:34;;;;;;;13.57;8.30;;;20.60;99.90;;;;;;5087782;28;20173;-81
2021/07/24 08:53:07;;;;;;;13.00;7.57;;;20.80;99.90;;;;;;5085872;28;20697;-80
2021/07/24 08:55:34;;;;;;;12.03;8.40;;;21.00;99.90;;;;;;5088201;28;20174;-81
2021/07/24 08:58:00;;;;;;;15.80;7.73;;;21.10;99.90;;;;;;5088412;28;20177;-80
2021/07/24 09:00:27;;;;;;;10.03;8.30;;;21.30;99.90;;;;;;5086689;28;20205;-80
2021/07/24 09:02:57;;;;;;;14.07;8.50;;;21.60;99.90;;;;;;5087009;28;20200;-80
2021/07/24 09:05:23;;;;;;;9.53;7.70;;;21.70;99.90;;;;;;5085593;28;20216;-80
2021/07/24 09:07:50;;;;;;;12.80;7.77;;;22.00;99.90;;;;;;5086705;28;20188;-81
2021/07/24 09:10:19;;;;;;;10.10;6.93;;;22.40;99.90;;;;;;5085755;28;20180;-80
2021/07/24 09:12:49;;;;;;;9.03;6.20;;;22.70;99.90;;;;;;5086720;28;20214;-81
2021/07/24 09:15:17;;;;;;;9.17;6.27;;;23.00;99.90;;;;;;5087221;28;20157;-81
2021/07/24 09:17:44;;;;;;;10.50;6.80;;;23.20;99.90;;;;;;5086617;28;20170;-80
2021/07/24 09:20:10;;;;;;;8.70;6.40;;;23.40;99.90;;;;;;5085810;28;20177;-81
2021/07/24 09:22:38;;;;;;;9.07;6.10;;;23.50;99.90;;;;;;5087173;28;20252;-80
2021/07/24 09:25:13;;;;;;;9.23;6.23;;;23.60;99.90;;;;;;5087141;28;20232;-80
2021/07/24 09:27:46;;;;;;;7.57;6.53;;;23.70;99.90;;;;;;5086269;28;20252;-80
2021/07/24 09:30:34;;;;;;;11.47;6.80;;;23.80;99.90;;;;;;5087091;28;20210;-81
2021/07/24 09:33:13;;;;;;;10.00;7.27;;;23.80;99.90;;;;;;5086592;28;20223;-81
2021/07/24 09:35:43;;;;;;;9.17;6.50;;;24.00;99.90;;;;;;5086434;28;20188;-81
2021/07/24 09:38:16;;;;;;;11.47;7.43;;;24.10;99.90;;;;;;5088227;28;20264;-81
2021/07/24 09:40:44;;;;;;;10.30;7.57;;;24.20;99.90;;;;;;5087087;28;20242;-81
2021/07/24 09:43:29;;;;;;;12.13;7.17;;;24.30;99.90;;;;;;5086924;28;20201;-81
2021/07/24 09:46:08;;;;;;;10.13;7.90;;;24.50;99.90;;;;;;5087356;28;20182;-80
2021/07/24 09:48:34;;;;;;;10.67;7.40;;;24.60;99.90;;;;;;5086306;28;20201;-83
2021/07/24 09:50:59;;;;;;;10.93;8.80;;;24.70;99.90;;;;;;5086176;28;20178;-82
2021/07/24 09:53:47;;;;;;;10.13;8.13;;;24.90;99.90;;;;;;5086064;28;20190;-80
2021/07/24 09:56:17;;;;;;;12.43;8.87;;;25.20;99.90;;;;;;5084990;28;20180;-81
2021/07/24 09:58:44;;;;;;;10.10;8.60;;;25.30;99.90;;;;;;5087102;28;20528;-81
2021/07/24 10:01:11;;;;;;;14.20;9.23;;;25.40;99.90;;;;;;5086760;28;20188;-81
2021/07/24 10:03:39;;;;;;;13.93;9.50;;;25.40;99.90;;;;;;5088281;28;20202;-80
2021/07/24 10:06:12;;;;;;;13.57;8.30;;;25.50;99.90;;;;;;5088691;28;20200;-81
2021/07/24 10:08:41;;;;;;;10.37;8.03;;;25.60;99.90;;;;;;5088055;28;20235;-81
2021/07/24 10:11:07;;;;;;;12.80;8.60;;;25.60;99.90;;;;;;5089239;28;20267;-82
2021/07/24 10:13:33;;;;;;;13.90;9.13;;;25.60;99.90;;;;;;5087767;28;20297;-83
2021/07/24 10:16:00;;;;;;;10.93;8.43;;;25.80;99.90;;;;;;5087063;28;20191;-82
2021/07/24 10:18:27;;;;;;;9.73;8.27;;;25.90;99.90;;;;;;5086471;28;20259;-82
2021/07/24 10:20:52;;;;;;;11.20;8.30;;;25.90;99.90;;;;;;5081353;28;20193;-80
2021/07/24 10:23:23;;;;;;;11.87;8.57;;;26.10;99.90;;;;;;5078368;28;20229;-80
2021/07/24 10:26:17;;;;;;;12.23;8.57;;;26.40;99.90;;;;;;5080674;28;20204;-81
2021/07/24 10:29:18;;;;;;;11.67;8.80;;;26.50;99.90;;;;;;5087462;28;20227;-81
2021/07/24 10:32:26;;;;;;;12.00;9.23;;;26.70;99.90;;;;;;5099683;28;20308;-80
2021/07/24 10:34:53;;;;;;;10.83;8.33;;;26.90;99.90;;;;;;5048554;28;20276;-81
2021/07/24 10:37:44;;;;;;;9.73;8.40;;;26.90;99.90;;;;;;5047468;28;20178;-80
2021/07/24 10:40:27;;;;;;;12.30;8.53;;;27.10;99.90;;;;;;5071245;28;20187;-80
2021/07/24 10:42:54;;;;;;;10.97;8.33;;;26.90;99.90;;;;;;5084531;28;20192;-81
2021/07/24 10:45:32;;;;;;;12.27;8.83;;;26.90;99.90;;;;;;5085802;28;20172;-81
2021/07/24 10:48:16;;;;;;;10.90;8.97;;;26.80;99.90;;;;;;5085552;28;20214;-81
2021/07/24 10:50:54;;;;;;;12.23;9.00;;;26.30;99.90;;;;;;5084211;28;20169;-81
2021/07/24 10:53:27;;;;;;;14.77;9.57;;;26.00;99.90;;;;;;5083439;28;20220;-81
2021/07/24 10:55:54;;;;;;;12.10;9.03;;;25.70;99.90;;;;;;5084297;28;20165;-80
2021/07/24 10:58:29;;;;;;;13.50;9.70;;;25.60;99.90;;;;;;5083540;28;20173;-81
2021/07/24 11:00:59;;;;;;;11.67;9.87;;;25.50;99.90;;;;;;5084574;28;20161;-81
2021/07/24 11:03:29;;;;;;;12.53;8.97;;;25.30;99.90;;;;;;5084087;28;20200;-81
2021/07/24 11:05:58;;;;;;;10.13;8.87;;;25.30;99.90;;;;;;5083618;28;20196;-81
2021/07/24 11:09:02;;;;;;;12.37;8.93;;;25.40;99.90;;;;;;5085121;28;20228;-80
2021/07/24 11:11:41;;;;;;;12.47;9.63;;;25.30;99.90;;;;;;5083870;28;20176;-81
2021/07/24 11:14:28;;;;;;;11.27;9.80;;;25.30;99.90;;;;;;5084210;28;20201;-80
2021/07/24 11:17:06;;;;;;;13.30;9.67;;;25.30;99.90;;;;;;5085159;28;20373;-80
2021/07/24 11:19:39;;;;;;;13.87;10.23;;;26.00;99.90;;;;;;5085184;28;20233;-80
2021/07/24 11:22:14;;;;;;;16.53;11.30;;;26.70;99.90;;;;;;5084889;28;20569;-81
2021/07/24 11:24:50;;;;;;;13.67;10.83;;;27.20;99.90;;;;;;5084680;28;20172;-81
2021/07/24 11:27:26;;;;;;;14.00;10.33;;;27.60;99.90;;;;;;5084206;28;20184;-81
2021/07/24 11:30:09;;;;;;;11.30;10.10;;;27.90;99.90;;;;;;5085908;28;20198;-81
2021/07/24 11:32:39;;;;;;;12.43;9.73;;;27.90;99.90;;;;;;5086047;28;20193;-81
2021/07/24 11:35:11;;;;;;;12.37;9.43;;;27.80;99.90;;;;;;5085529;28;20230;-80
2021/07/24 11:37:53;;;;;;;11.53;9.83;;;27.90;99.90;;;;;;5085093;28;20260;-81
2021/07/24 11:40:23;;;;;;;13.20;10.90;;;27.80;99.90;;;;;;5086259;28;20164;-81
2021/07/24 11:43:16;;;;;;;15.40;10.50;;;27.80;99.90;;;;;;5085752;28;20192;-80
2021/07/24 11:45:42;;;;;;;12.27;10.13;;;28.00;99.90;;;;;;5084076;28;20253;-81
2021/07/24 11:48:17;;;;;;;12.97;10.23;;;28.40;99.90;;;;;;5085545;28;20194;-81
2021/07/24 11:50:44;;;;;;;12.27;10.07;;;28.80;99.90;;;;;;5086341;28;20167;-81
2021/07/24 11:53:10;;;;;;;12.07;9.90;;;29.60;99.90;;;;;;5087395;28;20662;-80
2021/07/24 11:55:36;;;;;;;11.23;9.53;;;29.80;99.90;;;;;;5084498;28;20184;-81
2021/07/24 11:58:14;;;;;;;12.90;10.43;;;29.90;99.90;;;;;;5083172;28;20219;-81
2021/07/24 12:00:41;;;;;;;12.50;10.20;;;30.00;99.90;;;;;;5084860;28;20165;-79
2021/07/24 12:03:14;;;;;;;12.13;10.83;;;30.30;99.90;;;;;;5084458;28;20285;-79
2021/07/24 12:05:40;;;;;;;11.97;8.87;;;30.40;99.90;;;;;;5082877;28;20203;-81
2021/07/24 12:08:07;;;;;;;18.67;9.70;;;30.30;99.90;;;;;;5084131;28;20216;-79
2021/07/24 12:10:38;;;;;;;10.20;8.47;;;30.20;99.90;;;;;;5084156;28;20172;-79
2021/07/24 12:13:05;;;;;;;18.87;9.40;;;30.20;99.90;;;;;;5082174;28;20209;-79
2021/07/24 12:15:57;;;;;;;11.70;8.67;;;30.40;99.90;;;;;;5083299;28;20167;-79
2021/07/24 12:18:23;;;;;;;10.07;8.90;;;30.50;99.90;;;;;;5082358;28;20264;-80
2021/07/24 12:20:49;;;;;;;11.23;8.57;;;30.10;99.90;;;;;;5085558;28;20180;-81
2021/07/24 12:23:20;;;;;;;12.03;8.37;;;30.00;99.90;;;;;;5096487;28;20197;-80
2021/07/24 12:26:04;;;;;;;13.00;8.97;;;30.20;99.90;;;;;;5092669;28;20245;-80
2021/07/24 12:28:30;;;;;;;11.60;9.47;;;30.40;99.90;;;;;;5085270;28;20196;-81
2021/07/24 12:31:21;;;;;;;11.77;8.70;;;30.40;99.90;;;;;;5084928;28;20568;-80
2021/07/24 12:33:47;;;;;;;10.40;8.77;;;30.50;99.90;;;;;;5083368;28;20201;-81
2021/07/24 12:36:14;;;;;;;11.83;9.17;;;30.70;99.90;;;;;;5083092;28;20175;-80
2021/07/24 12:38:40;;;;;;;9.50;8.57;;;30.50;99.90;;;;;;5084471;28;20214;-80
2021/07/24 12:41:06;;;;;;;12.70;9.30;;;30.00;99.90;;;;;;5083071;28;20187;-81
2021/07/24 12:43:32;;;;;;;12.00;9.80;;;29.10;99.90;;;;;;5083775;28;20228;-81
2021/07/24 12:46:15;;;;;;;11.53;8.43;;;28.30;99.90;;;;;;5084524;28;20638;-81
2021/07/24 12:48:45;;;;;;;11.63;8.70;;;28.00;99.90;;;;;;5089777;28;20220;-81